Time;durP1;ratioP1;P1;durP2;ratioP2;P2;SDS_P1;SDS_P2;PMS_P1;PMS_P2;Temp;Humidity;BMP_temperature;BMP_pressure;BME280_temperature;BME280_humidity;BME280_pressure;Samples;Min_cycle;Max_cycle;Signal;HPM_P1;HPM_P2
2023/07/21 00:01:50;;;;;;;5.50;3.17;;;14.60;99.90;;;;;;5019105;28;20042;-48
2023/07/21 00:04:17;;;;;;;4.47;2.90;;;14.50;99.90;;;;;;5021463;28;20038;-51
2023/07/21 00:06:43;;;;;;;3.55;2.78;;;14.50;99.90;;;;;;5018464;28;20043;-50
2023/07/21 00:09:12;;;;;;;7.82;3.22;;;14.50;99.90;;;;;;5016903;28;20038;-49
2023/07/21 00:11:38;;;;;;;4.35;3.13;;;14.50;99.90;;;;;;5017381;28;20522;-51
2023/07/21 00:14:10;;;;;;;6.95;3.60;;;14.40;99.90;;;;;;5021313;28;20425;-48
2023/07/21 00:16:35;;;;;;;3.65;2.90;;;14.40;99.90;;;;;;5016983;28;20137;-51
2023/07/21 00:19:01;;;;;;;9.02;3.28;;;14.40;99.90;;;;;;5015587;28;20120;-53
2023/07/21 00:21:28;;;;;;;4.55;2.90;;;14.30;99.90;;;;;;5017575;28;20044;-52
2023/07/21 00:23:55;;;;;;;6.97;3.20;;;14.30;99.90;;;;;;5015714;28;20125;-50
2023/07/21 00:26:21;;;;;;;5.45;2.97;;;14.20;99.90;;;;;;5017400;28;20065;-51
2023/07/21 00:28:46;;;;;;;7.07;3.20;;;14.20;99.90;;;;;;5016111;28;20034;-48
2023/07/21 00:31:13;;;;;;;5.38;3.17;;;14.20;99.90;;;;;;5018567;28;20042;-51
2023/07/21 00:33:39;;;;;;;4.38;2.85;;;14.20;99.90;;;;;;4997133;28;20069;-48
2023/07/21 00:36:05;;;;;;;7.22;3.20;;;14.10;99.90;;;;;;5020482;28;20041;-50
2023/07/21 00:38:31;;;;;;;4.75;3.10;;;14.10;99.90;;;;;;5001041;28;20416;-49
2023/07/21 00:40:57;;;;;;;4.15;3.13;;;14.10;99.90;;;;;;5004843;28;20049;-47
2023/07/21 00:43:23;;;;;;;5.88;2.88;;;14.00;99.90;;;;;;5002751;28;20050;-52
2023/07/21 00:45:49;;;;;;;5.90;3.08;;;14.00;99.90;;;;;;5004438;28;20050;-49
2023/07/21 00:48:19;;;;;;;6.57;2.92;;;13.90;99.90;;;;;;5005025;28;20034;-49
2023/07/21 00:50:50;;;;;;;4.82;3.20;;;13.90;99.90;;;;;;5004221;28;20057;-48
2023/07/21 00:53:16;;;;;;;4.57;3.33;;;13.90;99.90;;;;;;5003691;28;20042;-50
2023/07/21 00:55:42;;;;;;;3.38;2.80;;;13.80;99.90;;;;;;5010395;28;20038;-48
2023/07/21 00:58:12;;;;;;;4.03;2.50;;;13.80;99.90;;;;;;5004492;28;20040;-49
2023/07/21 01:00:40;;;;;;;3.05;2.70;;;13.80;99.90;;;;;;5003567;28;20030;-50
2023/07/21 01:03:08;;;;;;;5.00;3.05;;;13.70;99.90;;;;;;5003480;28;20052;-54
2023/07/21 01:05:38;;;;;;;4.65;3.30;;;13.70;99.90;;;;;;4996754;28;20048;-55
2023/07/21 01:08:04;;;;;;;3.80;2.85;;;13.60;99.90;;;;;;5288182;23;20077;-51
2023/07/21 01:10:36;;;;;;;5.53;2.75;;;13.60;99.90;;;;;;4968969;28;20045;-47
2023/07/21 01:15:34;;;;;;;4.60;3.20;;;13.40;99.90;;;;;;4942128;28;20058;-48
2023/07/21 01:18:02;;;;;;;5.65;3.63;;;13.50;99.90;;;;;;4975476;28;20051;-49
2023/07/21 01:20:29;;;;;;;5.43;3.70;;;13.50;99.90;;;;;;4947769;28;20034;-49
2023/07/21 01:23:10;;;;;;;5.45;3.90;;;13.40;99.90;;;;;;4968544;28;20107;-51
2023/07/21 01:25:39;;;;;;;6.65;3.90;;;13.40;99.90;;;;;;4982475;28;20035;-48
2023/07/21 01:28:07;;;;;;;4.95;3.38;;;13.30;99.90;;;;;;4979478;28;20053;-49
2023/07/21 01:30:34;;;;;;;5.40;3.90;;;13.40;99.90;;;;;;4983531;28;20073;-49
2023/07/21 01:33:01;;;;;;;5.97;3.30;;;13.40;99.90;;;;;;4979529;28;20407;-49
2023/07/21 01:35:30;;;;;;;10.52;3.75;;;13.30;99.90;;;;;;4981664;28;20047;-49
2023/07/21 01:37:57;;;;;;;4.28;3.15;;;13.30;99.90;;;;;;4963431;28;20085;-48
2023/07/21 01:40:25;;;;;;;5.68;3.55;;;13.30;99.90;;;;;;4982907;28;21116;-49
2023/07/21 01:42:52;;;;;;;6.13;3.60;;;13.20;99.90;;;;;;4983322;28;20049;-48
2023/07/21 01:45:18;;;;;;;4.80;3.40;;;13.20;99.90;;;;;;4981897;28;20030;-48
2023/07/21 01:47:48;;;;;;;6.93;3.90;;;13.20;99.90;;;;;;4980254;28;20030;-48
2023/07/21 01:50:16;;;;;;;5.53;4.00;;;13.10;99.90;;;;;;4981526;28;20121;-48
2023/07/21 01:52:48;;;;;;;6.65;4.00;;;13.10;99.90;;;;;;4981294;28;20058;-51
2023/07/21 01:55:24;;;;;;;7.07;4.25;;;13.10;99.90;;;;;;4980934;28;20035;-48
2023/07/21 01:58:13;;;;;;;8.68;4.05;;;13.10;99.90;;;;;;4977473;28;20053;-50
2023/07/21 02:00:42;;;;;;;4.60;3.45;;;13.00;99.90;;;;;;4939032;28;20070;-50
2023/07/21 02:03:09;;;;;;;5.93;3.90;;;13.00;99.90;;;;;;4974724;28;20047;-51
2023/07/21 02:05:34;;;;;;;5.60;3.50;;;13.00;99.90;;;;;;4977721;28;20045;-48
2023/07/21 02:08:00;;;;;;;4.20;3.40;;;13.00;99.90;;;;;;4978448;28;20034;-50
2023/07/21 02:10:26;;;;;;;4.38;3.35;;;13.00;99.90;;;;;;4973584;28;20050;-49
2023/07/21 02:12:52;;;;;;;5.70;3.60;;;12.90;99.90;;;;;;4974357;28;20046;-49
2023/07/21 02:15:18;;;;;;;7.75;4.18;;;12.90;99.90;;;;;;4977324;28;20051;-51
2023/07/21 02:17:45;;;;;;;6.28;4.15;;;12.90;99.90;;;;;;4977082;28;20050;-50
2023/07/21 02:20:11;;;;;;;7.03;4.10;;;12.90;99.90;;;;;;4977851;28;20046;-48
2023/07/21 02:22:43;;;;;;;6.07;4.00;;;12.90;99.90;;;;;;4959040;28;20054;-51
2023/07/21 02:25:09;;;;;;;6.78;4.18;;;12.90;99.90;;;;;;4974567;28;20042;-50
2023/07/21 02:27:35;;;;;;;5.68;4.15;;;12.90;99.90;;;;;;4977589;28;20034;-52
2023/07/21 02:30:02;;;;;;;6.70;3.78;;;12.90;99.90;;;;;;4977703;28;20054;-48
2023/07/21 02:32:28;;;;;;;5.40;3.13;;;12.80;99.90;;;;;;4977268;28;20042;-51
2023/07/21 02:34:54;;;;;;;6.30;3.47;;;12.80;99.90;;;;;;4979931;28;20042;-47
2023/07/21 02:37:20;;;;;;;5.32;3.42;;;12.80;99.90;;;;;;4975534;28;20061;-50
2023/07/21 02:39:46;;;;;;;4.70;3.22;;;12.80;99.90;;;;;;4975576;28;20034;-52
2023/07/21 02:42:12;;;;;;;3.63;3.05;;;12.70;99.90;;;;;;4958288;28;20412;-51
2023/07/21 02:44:37;;;;;;;3.90;3.03;;;12.70;99.90;;;;;;4978311;28;20128;-52
2023/07/21 02:47:04;;;;;;;3.65;3.13;;;12.70;99.90;;;;;;4978722;28;20090;-49
2023/07/21 02:49:30;;;;;;;6.03;3.75;;;12.60;99.90;;;;;;4978922;28;20034;-51
2023/07/21 02:51:56;;;;;;;6.03;3.63;;;12.60;99.90;;;;;;4966810;28;20083;-49
2023/07/21 02:54:22;;;;;;;5.22;3.17;;;12.60;99.90;;;;;;4962298;28;20039;-49
2023/07/21 02:56:48;;;;;;;5.13;3.00;;;12.60;99.90;;;;;;4960805;28;20038;-50
2023/07/21 02:59:15;;;;;;;6.13;3.35;;;12.50;99.90;;;;;;4976549;28;20449;-50
2023/07/21 03:01:40;;;;;;;5.68;3.35;;;12.50;99.90;;;;;;4976588;28;20101;-49
2023/07/21 03:04:07;;;;;;;4.50;3.17;;;12.50;99.90;;;;;;4978171;28;20397;-47
2023/07/21 03:06:33;;;;;;;5.30;3.53;;;12.50;99.90;;;;;;4974907;28;20070;-51
2023/07/21 03:08:59;;;;;;;4.72;3.03;;;12.50;99.90;;;;;;4977784;28;20595;-48
2023/07/21 03:11:26;;;;;;;12.38;3.40;;;12.40;99.90;;;;;;4975832;28;20053;-52
2023/07/21 03:13:51;;;;;;;6.40;3.63;;;12.40;99.90;;;;;;4975363;28;20099;-52
2023/07/21 03:16:17;;;;;;;5.70;3.72;;;12.40;99.90;;;;;;4973008;28;20058;-49
2023/07/21 03:18:43;;;;;;;6.72;3.80;;;12.40;99.90;;;;;;4976138;28;20086;-48
2023/07/21 03:21:09;;;;;;;7.03;3.63;;;12.40;99.90;;;;;;4957470;28;20057;-49
2023/07/21 03:23:34;;;;;;;5.05;3.60;;;12.40;99.90;;;;;;4975953;28;20053;-48
2023/07/21 03:26:00;;;;;;;5.25;3.50;;;12.40;99.90;;;;;;4960554;28;20046;-52
2023/07/21 03:28:26;;;;;;;5.20;3.50;;;12.40;99.90;;;;;;4946962;28;20030;-52
2023/07/21 03:31:00;;;;;;;6.35;3.65;;;12.40;99.90;;;;;;4962371;28;20038;-49
2023/07/21 03:33:26;;;;;;;6.13;3.90;;;12.40;99.90;;;;;;4972145;28;20051;-51
2023/07/21 03:36:04;;;;;;;5.32;3.25;;;12.40;99.90;;;;;;4976036;28;20079;-47
2023/07/21 03:38:33;;;;;;;4.93;3.58;;;12.40;99.90;;;;;;4975793;28;20045;-49
2023/07/21 03:41:04;;;;;;;10.60;4.32;;;12.40;99.90;;;;;;4975343;28;20038;-50
2023/07/21 03:43:30;;;;;;;5.97;4.00;;;12.40;99.90;;;;;;4960498;28;20168;-51
2023/07/21 03:46:00;;;;;;;8.40;4.50;;;12.40;99.90;;;;;;4978134;28;20056;-52
2023/07/21 03:48:26;;;;;;;5.55;3.85;;;12.40;99.90;;;;;;4977580;28;20102;-51
2023/07/21 03:51:10;;;;;;;4.82;3.80;;;12.40;99.90;;;;;;4977908;28;20461;-50
2023/07/21 03:53:36;;;;;;;5.28;3.47;;;12.40;99.90;;;;;;4977283;28;20066;-51
2023/07/21 03:56:02;;;;;;;6.72;3.70;;;12.40;99.90;;;;;;4976707;28;20057;-52
2023/07/21 03:58:27;;;;;;;7.28;3.80;;;12.40;99.90;;;;;;4961681;28;20042;-50
2023/07/21 04:00:55;;;;;;;6.00;3.83;;;12.30;99.90;;;;;;4975688;28;20101;-48
2023/07/21 04:03:21;;;;;;;5.40;4.00;;;12.30;99.90;;;;;;4973849;28;20177;-50
2023/07/21 04:05:47;;;;;;;5.75;4.22;;;12.30;99.90;;;;;;4979405;28;20121;-50
2023/07/21 04:08:13;;;;;;;5.50;3.95;;;12.30;99.90;;;;;;4976764;28;20077;-48
2023/07/21 04:10:42;;;;;;;6.85;3.80;;;12.30;99.90;;;;;;4974313;28;20641;-49
2023/07/21 04:13:08;;;;;;;7.40;3.92;;;12.40;99.90;;;;;;4971988;28;20042;-48
2023/07/21 04:15:35;;;;;;;5.90;3.97;;;12.40;99.90;;;;;;4973154;28;20058;-49
2023/07/21 04:18:01;;;;;;;7.47;4.50;;;12.40;99.90;;;;;;4959567;28;20121;-51
2023/07/21 04:20:28;;;;;;;5.43;4.10;;;12.40;99.90;;;;;;4974997;28;20458;-51
2023/07/21 04:22:54;;;;;;;5.90;3.70;;;12.40;99.90;;;;;;4958941;28;20052;-51
2023/07/21 04:25:20;;;;;;;6.50;4.00;;;12.50;99.90;;;;;;4975435;28;20489;-47
2023/07/21 04:27:48;;;;;;;5.07;3.63;;;12.50;99.90;;;;;;4973339;28;20041;-48
2023/07/21 04:30:14;;;;;;;4.93;3.83;;;12.50;99.90;;;;;;4971436;28;20045;-47
2023/07/21 04:32:40;;;;;;;7.13;3.97;;;12.50;99.90;;;;;;4974593;28;20408;-47
2023/07/21 04:35:08;;;;;;;6.50;4.10;;;12.50;99.90;;;;;;4959485;28;20046;-50
2023/07/21 04:37:35;;;;;;;5.65;4.00;;;12.60;99.90;;;;;;4961729;28;20058;-49
2023/07/21 04:40:00;;;;;;;8.52;4.07;;;12.60;99.90;;;;;;4975849;28;20054;-48
2023/07/21 04:42:26;;;;;;;8.82;3.80;;;12.60;99.90;;;;;;4972834;28;20098;-52
2023/07/21 04:44:52;;;;;;;6.50;3.83;;;12.60;99.90;;;;;;4961368;28;20042;-52
2023/07/21 04:47:18;;;;;;;6.57;3.75;;;12.70;99.90;;;;;;4969472;28;20045;-49
2023/07/21 04:49:44;;;;;;;8.48;4.30;;;12.70;99.90;;;;;;4959529;28;20035;-51
2023/07/21 04:52:09;;;;;;;8.27;4.15;;;12.70;99.90;;;;;;4970750;28;20043;-49
2023/07/21 04:54:38;;;;;;;8.77;4.45;;;12.70;99.90;;;;;;4973116;28;20039;-52
2023/07/21 04:57:04;;;;;;;6.82;4.22;;;12.80;99.90;;;;;;4974601;28;20093;-51
2023/07/21 04:59:30;;;;;;;7.63;3.88;;;12.80;99.90;;;;;;4959688;28;20046;-52
2023/07/21 05:01:56;;;;;;;5.80;3.50;;;12.80;99.90;;;;;;4955994;28;20062;-52
2023/07/21 05:04:22;;;;;;;5.53;3.90;;;12.90;99.90;;;;;;4973092;28;20047;-51
2023/07/21 05:06:48;;;;;;;8.38;3.63;;;12.90;99.90;;;;;;4962454;28;20053;-49
2023/07/21 05:09:14;;;;;;;7.90;3.85;;;13.00;99.90;;;;;;4977581;28;20051;-51
2023/07/21 05:11:43;;;;;;;6.50;4.10;;;13.00;99.90;;;;;;4971897;28;20039;-50
2023/07/21 05:14:08;;;;;;;5.80;3.60;;;13.10;99.90;;;;;;4975013;28;20413;-50
2023/07/21 05:16:37;;;;;;;6.25;3.97;;;13.10;99.90;;;;;;4950542;28;20059;-52
2023/07/21 05:19:06;;;;;;;6.90;3.85;;;13.20;99.90;;;;;;4965225;28;20054;-51
2023/07/21 05:21:32;;;;;;;8.63;4.13;;;13.20;99.90;;;;;;4968823;28;20404;-51
2023/07/21 05:23:57;;;;;;;4.38;3.35;;;13.30;99.90;;;;;;4971469;28;20043;-50
2023/07/21 05:26:23;;;;;;;5.18;3.38;;;13.30;99.90;;;;;;4958911;28;20085;-53
2023/07/21 05:28:54;;;;;;;7.35;3.63;;;13.40;99.90;;;;;;4977119;28;20044;-51
2023/07/21 05:31:20;;;;;;;5.60;3.75;;;13.40;99.90;;;;;;4972609;28;20057;-48
2023/07/21 05:33:46;;;;;;;5.00;3.30;;;13.50;99.90;;;;;;4972142;28;20046;-52
2023/07/21 05:36:12;;;;;;;5.97;4.30;;;13.50;99.90;;;;;;4972021;28;20041;-49
2023/07/21 05:38:38;;;;;;;7.00;4.00;;;13.60;99.90;;;;;;4975529;28;20047;-49
2023/07/21 05:41:05;;;;;;;5.75;3.72;;;13.60;99.90;;;;;;4949932;28;20050;-53
2023/07/21 05:43:31;;;;;;;6.85;3.83;;;13.70;99.90;;;;;;4972399;28;20054;-51
2023/07/21 05:45:57;;;;;;;6.40;3.42;;;13.70;99.90;;;;;;4975928;28;20054;-48
2023/07/21 05:48:26;;;;;;;5.38;3.78;;;13.80;99.90;;;;;;4968944;28;20496;-51
2023/07/21 05:50:52;;;;;;;6.15;3.90;;;13.80;99.90;;;;;;4969393;28;20104;-50
2023/07/21 05:53:19;;;;;;;7.97;3.78;;;13.90;99.90;;;;;;4944410;28;20874;-51
2023/07/21 05:55:46;;;;;;;5.53;3.70;;;14.00;99.90;;;;;;4968922;28;20104;-49
2023/07/21 05:58:12;;;;;;;6.47;4.05;;;14.00;99.90;;;;;;4973630;28;20459;-50
2023/07/21 06:00:41;;;;;;;8.07;4.22;;;14.10;99.90;;;;;;4973901;28;20045;-51
2023/07/21 06:03:06;;;;;;;8.07;4.28;;;14.10;99.90;;;;;;4976319;28;20051;-51
2023/07/21 06:05:36;;;;;;;7.47;3.58;;;14.20;99.90;;;;;;4978360;28;20092;-50
2023/07/21 06:08:05;;;;;;;8.63;3.63;;;14.30;99.90;;;;;;4950520;28;20057;-54
2023/07/21 06:10:31;;;;;;;5.47;3.88;;;14.40;99.90;;;;;;4960923;28;20039;-52
2023/07/21 06:12:57;;;;;;;6.78;3.53;;;14.40;99.90;;;;;;4955779;28;20046;-53
2023/07/21 06:15:26;;;;;;;4.60;3.25;;;14.50;99.90;;;;;;4972734;28;20097;-51
2023/07/21 06:17:52;;;;;;;6.50;3.58;;;14.50;99.90;;;;;;4975168;28;20496;-52
2023/07/21 06:20:20;;;;;;;5.50;3.45;;;14.60;99.90;;;;;;4977169;28;20982;-51
2023/07/21 06:22:47;;;;;;;5.72;3.05;;;14.60;99.90;;;;;;4957710;28;20046;-49
2023/07/21 06:25:13;;;;;;;7.45;3.47;;;14.70;99.90;;;;;;4972043;28;20046;-51
2023/07/21 06:27:39;;;;;;;4.97;3.35;;;14.80;99.90;;;;;;4975025;28;20038;-50
2023/07/21 06:30:05;;;;;;;11.10;3.42;;;14.90;99.90;;;;;;4975580;28;20159;-49
2023/07/21 06:32:31;;;;;;;3.97;3.13;;;15.00;99.90;;;;;;4976253;28;20342;-49
2023/07/21 06:34:57;;;;;;;8.38;3.45;;;15.10;99.90;;;;;;4974152;28;20069;-52
2023/07/21 06:37:23;;;;;;;6.53;3.28;;;15.20;99.90;;;;;;4974379;28;20062;-51
2023/07/21 06:39:51;;;;;;;6.60;3.30;;;15.40;99.90;;;;;;4971739;28;20046;-48
2023/07/21 06:42:16;;;;;;;6.75;3.10;;;15.40;99.90;;;;;;4970558;28;20050;-52
2023/07/21 06:44:42;;;;;;;5.22;3.17;;;15.60;99.90;;;;;;4951508;28;20400;-52
2023/07/21 06:47:08;;;;;;;6.85;3.30;;;15.80;99.90;;;;;;4972975;28;20045;-51
2023/07/21 06:49:33;;;;;;;5.60;3.28;;;15.90;99.90;;;;;;4972665;28;20042;-50
2023/07/21 06:51:59;;;;;;;4.88;2.25;;;16.10;99.90;;;;;;4962276;28;20099;-51
2023/07/21 06:54:29;;;;;;;3.10;2.50;;;16.30;99.90;;;;;;4972265;28;20046;-52
2023/07/21 06:56:55;;;;;;;3.65;2.47;;;16.50;99.90;;;;;;4971602;28;20050;-52
2023/07/21 06:59:21;;;;;;;6.25;2.60;;;16.60;99.90;;;;;;4974453;28;20089;-51
2023/07/21 07:01:47;;;;;;;6.25;2.80;;;16.90;99.90;;;;;;4972695;28;20662;-48
2023/07/21 07:04:12;;;;;;;3.45;2.53;;;17.00;99.90;;;;;;4913625;28;20038;-49
2023/07/21 07:06:38;;;;;;;1.70;1.60;;;17.20;99.90;;;;;;4930865;28;20371;-51
2023/07/21 07:09:04;;;;;;;2.00;1.80;;;17.40;99.90;;;;;;4960167;28;20045;-49
2023/07/21 07:11:30;;;;;;;4.47;2.20;;;17.50;99.90;;;;;;4966270;28;21045;-51
2023/07/21 07:13:56;;;;;;;5.60;2.20;;;17.60;99.90;;;;;;4965941;28;20117;-49
2023/07/21 07:16:22;;;;;;;2.40;2.15;;;17.60;99.90;;;;;;4948325;28;20480;-50
2023/07/21 07:18:47;;;;;;;2.70;2.00;;;17.70;99.90;;;;;;4969688;28;20558;-48
2023/07/21 07:21:14;;;;;;;1.60;1.50;;;17.80;99.90;;;;;;4951958;28;20276;-49
2023/07/21 07:23:40;;;;;;;2.10;1.40;;;17.90;99.90;;;;;;4956728;28;20501;-52
2023/07/21 07:26:06;;;;;;;3.22;1.70;;;18.10;99.90;;;;;;4964616;28;20109;-53
2023/07/21 07:28:32;;;;;;;3.10;1.90;;;18.10;99.90;;;;;;4950479;28;20050;-52
2023/07/21 07:31:04;;;;;;;3.13;1.90;;;18.20;99.90;;;;;;4970051;28;20500;-51
2023/07/21 07:33:30;;;;;;;2.22;1.48;;;18.20;99.90;;;;;;4953207;28;20061;-49
2023/07/21 07:35:56;;;;;;;2.00;1.80;;;18.30;99.90;;;;;;4968389;28;20463;-50
2023/07/21 07:38:27;;;;;;;3.50;2.00;;;18.30;99.90;;;;;;4966101;28;20093;-52
2023/07/21 07:40:53;;;;;;;3.10;1.80;;;18.30;99.90;;;;;;4968163;28;20053;-53
2023/07/21 07:43:19;;;;;;;3.55;1.60;;;18.40;99.90;;;;;;4966711;28;20587;-52
2023/07/21 07:45:44;;;;;;;2.00;1.80;;;18.40;99.90;;;;;;4968592;28;20038;-51
2023/07/21 07:48:10;;;;;;;2.70;1.60;;;18.50;99.90;;;;;;4968055;28;20038;-53
2023/07/21 07:50:41;;;;;;;2.25;2.00;;;18.50;99.90;;;;;;4968773;28;20390;-52
2023/07/21 07:53:07;;;;;;;2.40;2.20;;;18.50;99.90;;;;;;4963265;28;20046;-52
2023/07/21 07:55:40;;;;;;;3.75;2.50;;;18.50;99.90;;;;;;4963325;28;20574;-49
2023/07/21 07:58:06;;;;;;;3.35;2.60;;;18.60;99.90;;;;;;4968862;28;20575;-51
2023/07/21 08:00:37;;;;;;;3.53;2.65;;;18.60;99.90;;;;;;4968426;28;20129;-51
2023/07/21 08:03:04;;;;;;;2.83;2.53;;;18.70;99.90;;;;;;4965656;28;20116;-50
2023/07/21 08:05:31;;;;;;;4.15;2.50;;;18.70;99.90;;;;;;4955028;28;20030;-48
2023/07/21 08:08:00;;;;;;;3.47;2.55;;;18.80;99.90;;;;;;4956917;28;20065;-48
2023/07/21 08:10:29;;;;;;;4.82;2.15;;;18.80;99.90;;;;;;4967587;28;20558;-50
2023/07/21 08:12:55;;;;;;;3.65;2.00;;;18.90;99.90;;;;;;4966877;28;20050;-52
2023/07/21 08:15:22;;;;;;;3.50;2.67;;;18.90;99.90;;;;;;4963391;28;20204;-52
2023/07/21 08:17:48;;;;;;;4.28;2.30;;;19.00;99.90;;;;;;4949813;28;20058;-53
2023/07/21 08:20:16;;;;;;;3.85;2.58;;;19.00;99.90;;;;;;4946732;28;20108;-53
2023/07/21 08:22:42;;;;;;;3.40;2.30;;;19.10;99.90;;;;;;4964881;28;20043;-49
2023/07/21 08:25:08;;;;;;;5.68;2.60;;;19.20;99.90;;;;;;4962144;28;20097;-51
2023/07/21 08:27:35;;;;;;;3.92;2.40;;;19.30;99.90;;;;;;4958939;28;20042;-52
2023/07/21 08:30:01;;;;;;;3.85;2.20;;;19.50;99.90;;;;;;4963423;28;20121;-51
2023/07/21 08:32:27;;;;;;;3.08;2.00;;;19.50;99.90;;;;;;4959756;28;21360;-52
2023/07/21 08:34:55;;;;;;;3.78;2.20;;;19.60;99.90;;;;;;4964363;28;20042;-52
2023/07/21 08:37:21;;;;;;;2.67;2.05;;;19.70;99.60;;;;;;4948828;28;20149;-54
2023/07/21 08:39:47;;;;;;;5.15;2.10;;;19.70;99.10;;;;;;4963372;28;20080;-52
2023/07/21 08:42:13;;;;;;;5.35;1.70;;;19.70;98.80;;;;;;4963823;28;20050;-52
2023/07/21 08:44:40;;;;;;;5.13;1.70;;;19.70;98.80;;;;;;4965751;28;20255;-48
2023/07/21 08:47:06;;;;;;;3.83;2.15;;;19.80;98.50;;;;;;4950508;28;20042;-54
2023/07/21 08:49:33;;;;;;;3.65;1.90;;;20.00;98.30;;;;;;4961853;28;20046;-50
2023/07/21 08:51:59;;;;;;;3.67;1.63;;;20.10;97.90;;;;;;4966624;28;20046;-51
2023/07/21 08:54:26;;;;;;;4.57;1.80;;;20.20;97.70;;;;;;4959643;28;20408;-53
2023/07/21 08:56:51;;;;;;;3.75;1.92;;;20.30;97.30;;;;;;4972242;28;20039;-51
2023/07/21 08:59:20;;;;;;;2.47;1.85;;;20.50;97.00;;;;;;4963042;28;20050;-51
2023/07/21 09:01:46;;;;;;;3.35;1.88;;;20.60;96.60;;;;;;4951435;28;20559;-52
2023/07/21 09:04:23;;;;;;;2.47;1.92;;;20.80;96.40;;;;;;4969548;28;20057;-53
2023/07/21 09:06:53;;;;;;;2.78;2.00;;;21.00;95.80;;;;;;4963087;28;20070;-52
2023/07/21 09:09:23;;;;;;;3.22;2.00;;;21.20;95.30;;;;;;4956620;28;20512;-52
2023/07/21 09:11:50;;;;;;;2.78;2.10;;;21.20;95.20;;;;;;4966301;28;20043;-51
2023/07/21 09:14:16;;;;;;;2.75;1.60;;;21.30;94.90;;;;;;4967240;28;20069;-53
2023/07/21 09:16:43;;;;;;;2.25;1.77;;;21.30;94.80;;;;;;4958800;28;20052;-52
2023/07/21 09:19:10;;;;;;;2.08;1.50;;;21.40;94.70;;;;;;4970415;28;20097;-49
2023/07/21 09:21:37;;;;;;;3.00;1.90;;;21.40;94.70;;;;;;4964894;28;20038;-53
2023/07/21 09:24:04;;;;;;;3.75;2.10;;;21.40;94.40;;;;;;4970525;28;20050;-53
2023/07/21 09:26:30;;;;;;;2.55;1.70;;;21.40;94.10;;;;;;4967145;28;20556;-52
2023/07/21 09:28:56;;;;;;;4.40;1.50;;;21.30;93.90;;;;;;4967252;28;20042;-53
2023/07/21 09:31:30;;;;;;;4.00;1.80;;;21.20;94.10;;;;;;4961887;28;20068;-51
2023/07/21 09:34:05;;;;;;;2.53;1.50;;;21.20;93.80;;;;;;4967509;28;20046;-49
2023/07/21 09:36:30;;;;;;;3.15;2.50;;;21.20;93.60;;;;;;4947181;28;20071;-49
2023/07/21 09:39:02;;;;;;;7.88;2.10;;;21.20;93.60;;;;;;4966996;28;20514;-50
2023/07/21 09:41:32;;;;;;;2.78;2.13;;;21.20;93.30;;;;;;4964415;28;20042;-51
2023/07/21 09:43:58;;;;;;;2.72;2.50;;;21.20;93.40;;;;;;4966787;28;20049;-53
2023/07/21 09:46:24;;;;;;;3.03;2.30;;;21.30;93.80;;;;;;4965578;28;20042;-50
2023/07/21 09:48:50;;;;;;;2.55;1.80;;;21.60;93.60;;;;;;4962728;28;20120;-51
2023/07/21 09:51:18;;;;;;;2.90;1.90;;;21.80;92.90;;;;;;4948253;28;20844;-50
2023/07/21 09:53:44;;;;;;;2.58;1.65;;;22.00;92.30;;;;;;4969844;28;20294;-51
2023/07/21 09:56:12;;;;;;;2.20;1.52;;;22.10;92.00;;;;;;4956944;28;20473;-50
2023/07/21 09:58:57;;;;;;;1.88;1.60;;;22.00;91.60;;;;;;4969543;28;20046;-51
2023/07/21 10:01:23;;;;;;;3.60;1.70;;;22.10;91.60;;;;;;4967829;28;20513;-52
2023/07/21 10:03:50;;;;;;;1.80;1.50;;;22.10;91.20;;;;;;4966331;28;20050;-50
2023/07/21 10:06:16;;;;;;;2.03;1.50;;;22.00;90.20;;;;;;4968998;28;20152;-50
2023/07/21 10:08:42;;;;;;;2.83;1.40;;;22.00;89.30;;;;;;4969836;28;20058;-51
2023/07/21 10:11:09;;;;;;;1.98;1.30;;;21.90;88.50;;;;;;4966447;28;20124;-49
2023/07/21 10:13:44;;;;;;;3.40;1.20;;;21.90;87.50;;;;;;4966973;28;20050;-49
2023/07/21 10:16:11;;;;;;;1.40;1.05;;;21.90;87.50;;;;;;4966315;28;20136;-50
2023/07/21 10:19:11;;;;;;;1.80;1.20;;;21.90;87.90;;;;;;4939641;28;20051;-50
2023/07/21 10:21:51;;;;;;;4.45;1.17;;;22.10;88.20;;;;;;4965191;28;20046;-50
2023/07/21 10:24:32;;;;;;;3.45;1.70;;;22.20;87.60;;;;;;4952096;28;20121;-49
2023/07/21 10:27:03;;;;;;;3.92;1.13;;;22.20;85.40;;;;;;4961758;28;20055;-50
2023/07/21 10:29:29;;;;;;;1.98;1.30;;;22.10;85.40;;;;;;4961994;28;20065;-50
2023/07/21 10:31:57;;;;;;;2.33;1.38;;;22.10;84.90;;;;;;4965039;28;20165;-50
2023/07/21 10:34:34;;;;;;;2.10;1.20;;;22.10;84.70;;;;;;4966142;28;20527;-49
2023/07/21 10:37:02;;;;;;;2.80;1.30;;;22.00;83.40;;;;;;4965387;28;20130;-52
2023/07/21 10:39:37;;;;;;;2.00;1.40;;;21.90;82.80;;;;;;4949368;28;20086;-49
2023/07/21 10:42:05;;;;;;;1.48;1.38;;;21.90;82.70;;;;;;4968416;28;20205;-49
2023/07/21 10:44:49;;;;;;;2.03;1.70;;;21.80;83.00;;;;;;4964873;28;20077;-50
2023/07/21 10:47:20;;;;;;;2.40;1.58;;;21.90;83.50;;;;;;4961018;28;20037;-53
2023/07/21 10:49:47;;;;;;;4.47;1.55;;;22.00;84.30;;;;;;4918872;28;20098;-52
2023/07/21 10:52:14;;;;;;;2.30;1.60;;;22.00;84.40;;;;;;4962221;28;20051;-49
2023/07/21 10:54:40;;;;;;;2.10;1.67;;;22.20;84.30;;;;;;4966492;28;20069;-50
2023/07/21 10:57:07;;;;;;;1.63;1.52;;;22.30;83.40;;;;;;4968943;28;20038;-53
2023/07/21 10:59:34;;;;;;;3.88;1.70;;;22.40;83.10;;;;;;4950854;28;20117;-51
2023/07/21 11:02:02;;;;;;;3.53;1.60;;;22.40;83.10;;;;;;4964162;28;20049;-52
2023/07/21 11:04:29;;;;;;;1.58;1.35;;;22.60;82.90;;;;;;4953549;28;20045;-53
2023/07/21 11:06:57;;;;;;;1.83;1.40;;;22.70;81.60;;;;;;4949245;28;20138;-52
2023/07/21 11:09:25;;;;;;;10.60;1.60;;;22.90;80.10;;;;;;4971746;28;20034;-50
2023/07/21 11:11:53;;;;;;;1.85;1.40;;;22.90;78.60;;;;;;4967893;28;20042;-50
2023/07/21 11:14:24;;;;;;;1.80;1.23;;;22.90;78.10;;;;;;4953943;28;20097;-52
2023/07/21 11:17:01;;;;;;;2.03;1.60;;;22.90;78.30;;;;;;4965409;28;20148;-50
2023/07/21 11:19:30;;;;;;;3.72;1.60;;;23.00;78.40;;;;;;4965588;28;20173;-51
2023/07/21 11:21:56;;;;;;;1.73;1.40;;;23.00;77.90;;;;;;4969009;28;20105;-50
2023/07/21 11:24:23;;;;;;;2.00;1.70;;;23.10;77.80;;;;;;4958315;28;20046;-50
2023/07/21 11:26:49;;;;;;;3.30;1.70;;;23.20;78.00;;;;;;4955724;28;20077;-51
2023/07/21 11:29:16;;;;;;;2.80;1.30;;;23.30;78.10;;;;;;4957685;28;20085;-49
2023/07/21 11:31:43;;;;;;;2.05;1.77;;;23.40;77.50;;;;;;4950874;28;20069;-52
2023/07/21 11:34:24;;;;;;;2.53;1.95;;;23.40;76.50;;;;;;4961690;28;20049;-49
2023/07/21 11:36:58;;;;;;;2.17;1.95;;;23.40;76.50;;;;;;4962588;28;20509;-52
2023/07/21 11:39:30;;;;;;;2.78;2.40;;;23.40;77.30;;;;;;4968035;28;20062;-49
2023/07/21 11:41:57;;;;;;;3.67;2.00;;;23.50;76.80;;;;;;4946553;28;20483;-52
2023/07/21 11:44:28;;;;;;;2.42;1.90;;;23.80;76.90;;;;;;4965022;28;20050;-49
2023/07/21 11:47:07;;;;;;;2.95;2.20;;;24.10;76.80;;;;;;4959891;28;20528;-50
2023/07/21 11:49:40;;;;;;;3.67;2.58;;;24.20;76.50;;;;;;4967408;28;20045;-48
2023/07/21 11:52:08;;;;;;;4.45;2.33;;;24.40;75.50;;;;;;4964679;28;20057;-49
2023/07/21 11:54:40;;;;;;;2.00;1.80;;;24.40;74.80;;;;;;4973205;28;20050;-48
2023/07/21 11:57:06;;;;;;;;;;;24.30;74.60;;;;;;4968866;28;20050;-48
2023/07/21 11:59:32;;;;;;;2.83;1.77;;;24.00;72.80;;;;;;4972193;28;19922;-49
2023/07/21 12:01:58;;;;;;;5.43;2.17;;;23.70;74.50;;;;;;4966330;28;20483;-51
2023/07/21 12:04:24;;;;;;;8.90;2.80;;;23.40;74.80;;;;;;4969800;28;20132;-50
2023/07/21 12:06:51;;;;;;;7.68;2.58;;;22.90;76.90;;;;;;4967101;28;20615;-51
2023/07/21 12:09:19;;;;;;;4.38;2.20;;;22.40;79.10;;;;;;4940729;28;20046;-52
2023/07/21 12:11:45;;;;;;;3.50;2.28;;;22.10;80.90;;;;;;4972530;28;20544;-51
2023/07/21 12:14:12;;;;;;;8.27;2.88;;;21.90;82.10;;;;;;4972060;28;20116;-50
2023/07/21 12:16:38;;;;;;;4.75;2.70;;;21.60;83.20;;;;;;4954774;28;20057;-54
2023/07/21 12:19:04;;;;;;;4.90;2.90;;;21.30;84.20;;;;;;4971393;28;20092;-50
2023/07/21 12:21:31;;;;;;;3.22;2.53;;;21.10;85.60;;;;;;4971565;28;20053;-49
2023/07/21 12:23:58;;;;;;;4.03;2.50;;;20.90;87.10;;;;;;4949592;28;20053;-53
2023/07/21 12:26:24;;;;;;;8.48;3.17;;;20.60;89.00;;;;;;4975579;28;20398;-52
2023/07/21 12:28:50;;;;;;;3.35;2.50;;;20.40;90.60;;;;;;4970350;28;20047;-49
2023/07/21 12:31:17;;;;;;;3.72;2.47;;;20.20;91.00;;;;;;4972366;28;20424;-50
2023/07/21 12:33:44;;;;;;;5.32;2.85;;;20.10;91.40;;;;;;4970339;28;20140;-51
2023/07/21 12:36:13;;;;;;;6.10;2.83;;;20.20;92.30;;;;;;4967777;28;20054;-49
2023/07/21 12:38:39;;;;;;;6.07;2.75;;;20.50;93.40;;;;;;4960830;28;20068;-53
2023/07/21 12:41:05;;;;;;;4.25;2.75;;;20.60;93.50;;;;;;4970494;28;20050;-52
2023/07/21 12:43:31;;;;;;;4.20;2.50;;;20.50;93.80;;;;;;4943930;28;20042;-48
2023/07/21 12:45:56;;;;;;;5.90;2.60;;;20.40;94.10;;;;;;4972777;28;20074;-53
2023/07/21 12:48:22;;;;;;;4.20;3.08;;;20.20;94.10;;;;;;4972952;28;20034;-51
2023/07/21 12:50:48;;;;;;;2.92;1.98;;;20.00;94.30;;;;;;4969387;28;20053;-50
2023/07/21 12:53:13;;;;;;;3.67;2.40;;;19.70;94.30;;;;;;4955016;28;20098;-52